Time;durP1;ratioP1;P1;durP2;ratioP2;P2;SDS_P1;SDS_P2;PMS_P1;PMS_P2;Temp;Humidity;BMP_temperature;BMP_pressure;BME280_temperature;BME280_humidity;BME280_pressure;Samples;Min_cycle;Max_cycle;Signal;HPM_P1;HPM_P2
2021/04/01 00:02:25;;;;;;;14.32;9.98;;;;;;;10.85;60.45;100919.53;4988501;28;20101;-57
2021/04/01 00:04:52;;;;;;;13.77;9.57;;;;;;;11.06;59.49;100909.03;4989515;28;20058;-56
2021/04/01 00:07:20;;;;;;;14.35;9.38;;;;;;;11.40;59.79;100910.75;4988076;28;20104;-57
2021/04/01 00:09:47;;;;;;;15.23;9.85;;;;;;;11.28;59.64;100907.00;4988676;28;20068;-57
2021/04/01 00:12:14;;;;;;;17.02;9.77;;;;;;;11.19;59.03;100902.53;4988513;28;20625;-56
2021/04/01 00:14:41;;;;;;;19.33;10.45;;;;;;;11.71;56.09;100893.59;4988193;28;20070;-52
2021/04/01 00:17:09;;;;;;;18.52;10.90;;;;;;;11.64;54.62;100896.81;4989191;28;20053;-56
2021/04/01 00:19:36;;;;;;;16.38;10.55;;;;;;;11.81;54.73;100892.09;4971735;28;20129;-55
2021/04/01 00:22:03;;;;;;;15.40;10.68;;;;;;;11.81;56.04;100900.66;4988802;28;20489;-57
2021/04/01 00:24:30;;;;;;;17.80;10.48;;;;;;;12.09;53.72;100899.66;4988144;28;20882;-55
2021/04/01 00:27:00;;;;;;;18.83;10.35;;;;;;;12.16;52.22;100888.69;4988802;28;20046;-54
2021/04/01 00:29:27;;;;;;;22.83;10.85;;;;;;;12.26;53.18;100884.63;4988194;28;20081;-57
2021/04/01 00:31:53;;;;;;;20.75;11.35;;;;;;;12.48;51.62;100889.41;4988803;28;20128;-53
2021/04/01 00:34:20;;;;;;;15.85;11.27;;;;;;;12.22;52.61;100881.13;4981183;28;20119;-55
2021/04/01 00:36:47;;;;;;;21.23;11.57;;;;;;;12.21;53.02;100875.97;4986408;28;20070;-53
2021/04/01 00:39:14;;;;;;;21.17;11.82;;;;;;;12.43;51.51;100879.84;4986941;28;20050;-57
2021/04/01 00:41:41;;;;;;;22.02;11.65;;;;;;;12.47;51.20;100877.38;4986722;28;20060;-55
2021/04/01 00:44:08;;;;;;;25.35;11.48;;;;;;;12.51;50.69;100875.72;4988931;28;20540;-58
2021/04/01 00:46:35;;;;;;;21.77;11.52;;;;;;;12.62;49.87;100873.41;4988236;28;20068;-57
2021/04/01 00:49:03;;;;;;;20.88;11.55;;;;;;;12.65;50.03;100865.75;4989138;28;20039;-56
2021/04/01 00:51:30;;;;;;;20.95;11.50;;;;;;;12.70;49.32;100870.13;4987502;28;20661;-58
2021/04/01 00:53:56;;;;;;;23.52;12.48;;;;;;;12.47;50.68;100873.94;4988549;28;20050;-57
2021/04/01 00:56:25;;;;;;;18.60;11.50;;;;;;;12.35;51.66;100871.13;4987759;28;20058;-56
2021/04/01 00:58:54;;;;;;;21.75;11.52;;;;;;;12.43;50.11;100873.03;4987851;28;20052;-56
2021/04/01 01:04:10;;;;;;;25.27;13.00;;;;;;;12.43;50.68;100856.72;4984759;28;20049;-56
2021/04/01 01:06:36;;;;;;;19.75;11.98;;;;;;;12.61;50.02;100858.81;4985566;28;20049;-56
2021/04/01 01:09:05;;;;;;;20.83;12.05;;;;;;;12.59;50.82;100857.91;4987362;28;20493;-53
2021/04/01 01:11:33;;;;;;;23.60;12.02;;;;;;;12.67;49.68;100852.09;4987121;28;20050;-55
2021/04/01 01:14:02;;;;;;;22.13;12.70;;;;;;;12.52;50.42;100848.34;4986288;28;20054;-56
2021/04/01 01:16:29;;;;;;;20.75;11.88;;;;;;;12.28;51.93;100853.84;4986077;28;20523;-55
2021/04/01 01:18:56;;;;;;;23.13;11.68;;;;;;;12.21;52.04;100850.28;4988109;28;20061;-58
2021/04/01 01:21:23;;;;;;;17.75;11.68;;;;;;;12.02;52.84;100850.69;4987102;28;20046;-58
2021/04/01 01:23:50;;;;;;;17.95;10.90;;;;;;;11.94;52.93;100838.56;4987562;28;20057;-56
2021/04/01 01:26:18;;;;;;;20.60;11.45;;;;;;;12.19;52.27;100841.66;4987388;28;20563;-54
2021/04/01 01:28:46;;;;;;;19.48;10.90;;;;;;;11.91;53.34;100845.31;4987114;28;20046;-54
2021/04/01 01:31:14;;;;;;;22.02;12.23;;;;;;;11.87;53.33;100838.38;4985893;28;20072;-58
2021/04/01 01:33:42;;;;;;;19.05;11.55;;;;;;;11.80;53.31;100837.38;4986987;28;20054;-58
2021/04/01 01:36:11;;;;;;;22.30;12.30;;;;;;;12.02;52.79;100831.06;4987437;28;20049;-58
2021/04/01 01:38:38;;;;;;;20.38;11.75;;;;;;;11.84;53.17;100836.63;4986709;28;20050;-58
2021/04/01 01:41:05;;;;;;;19.83;11.18;;;;;;;11.65;53.61;100825.06;4987720;28;20057;-56
2021/04/01 01:43:33;;;;;;;23.95;12.23;;;;;;;11.94;53.15;100827.44;4986724;28;20527;-54
2021/04/01 01:46:01;;;;;;;23.85;12.05;;;;;;;11.81;53.66;100823.69;4987601;28;20874;-56
2021/04/01 01:48:27;;;;;;;20.42;11.80;;;;;;;11.62;54.18;100826.69;4984334;28;20050;-57
2021/04/01 01:50:55;;;;;;;19.23;11.68;;;;;;;11.42;54.16;100819.38;4986336;28;20054;-55
2021/04/01 01:53:21;;;;;;;19.63;11.57;;;;;;;11.43;54.73;100828.81;4986833;28;20061;-58
2021/04/01 01:55:48;;;;;;;24.50;12.52;;;;;;;11.55;54.44;100825.66;4986461;28;20061;-54
2021/04/01 01:58:14;;;;;;;18.55;11.80;;;;;;;11.26;55.81;100821.53;4987054;28;20066;-55
2021/04/01 02:00:48;;;;;;;20.00;11.88;;;;;;;10.97;55.94;100816.53;4986858;28;20688;-58
2021/04/01 02:03:15;;;;;;;20.38;11.73;;;;;;;10.86;56.73;100825.59;4985963;28;20042;-55
2021/04/01 02:05:42;;;;;;;20.98;11.95;;;;;;;11.28;55.00;100817.28;4985765;28;20042;-55
2021/04/01 02:08:11;;;;;;;21.38;12.27;;;;;;;11.20;55.64;100819.69;4986520;28;20579;-58
2021/04/01 02:10:43;;;;;;;19.38;11.73;;;;;;;10.90;56.33;100817.19;4986443;28;20077;-58
2021/04/01 02:13:12;;;;;;;26.00;12.15;;;;;;;11.02;55.98;100812.38;4986237;28;20683;-57
2021/04/01 02:15:41;;;;;;;20.30;12.55;;;;;;;10.82;56.49;100811.88;4984201;28;20050;-55
2021/04/01 02:18:09;;;;;;;19.55;11.95;;;;;;;10.94;56.55;100813.88;4987580;28;20057;-54
2021/04/01 02:20:44;;;;;;;19.83;11.48;;;;;;;10.82;57.20;100813.56;4986492;28;20046;-57
2021/04/01 02:23:16;;;;;;;20.98;11.43;;;;;;;11.03;56.79;100810.69;4986698;28;20104;-56
2021/04/01 02:25:45;;;;;;;20.45;12.35;;;;;;;10.77;57.44;100813.44;4986167;28;20079;-54
2021/04/01 02:28:13;;;;;;;19.30;11.55;;;;;;;10.91;57.37;100803.56;4985804;28;20493;-53
2021/04/01 02:30:42;;;;;;;18.65;11.20;;;;;;;11.24;55.94;100811.25;4992306;28;20042;-54
2021/04/01 02:33:10;;;;;;;19.15;11.77;;;;;;;10.95;56.91;100802.78;4986895;28;20038;-55
2021/04/01 02:35:37;;;;;;;21.83;11.43;;;;;;;10.97;57.21;100808.84;4985655;28;20057;-54
2021/04/01 02:38:05;;;;;;;22.05;11.93;;;;;;;11.02;57.42;100807.25;4985855;28;20101;-57
2021/04/01 02:40:33;;;;;;;20.88;12.13;;;;;;;10.66;57.90;100809.72;4984211;28;20516;-53
2021/04/01 02:42:59;;;;;;;21.83;11.90;;;;;;;10.96;57.55;100802.00;4986688;28;20101;-55
2021/04/01 02:45:26;;;;;;;20.23;12.00;;;;;;;11.06;57.09;100798.81;4985976;28;20046;-55
2021/04/01 02:47:53;;;;;;;27.25;12.45;;;;;;;10.94;57.44;100799.38;4986651;28;20632;-55
2021/04/01 02:50:20;;;;;;;22.15;12.25;;;;;;;10.88;57.87;100796.66;4985552;28;20046;-56
2021/04/01 02:52:46;;;;;;;21.08;12.50;;;;;;;10.79;57.95;100798.97;4985525;28;20114;-55
2021/04/01 02:55:13;;;;;;;19.42;11.98;;;;;;;11.05;57.38;100798.78;4984632;28;20096;-56
2021/04/01 02:57:41;;;;;;;19.05;11.52;;;;;;;10.60;58.29;100794.19;4985644;28;20038;-58
2021/04/01 03:00:13;;;;;;;20.27;11.68;;;;;;;10.73;58.65;100793.69;4987995;28;20057;-54
2021/04/01 03:02:50;;;;;;;22.48;12.82;;;;;;;10.59;58.50;100789.91;4989261;28;20057;-56
2021/04/01 03:05:16;;;;;;;22.67;12.30;;;;;;;10.83;58.25;100790.53;4988866;28;20046;-57
2021/04/01 03:07:43;;;;;;;21.08;12.43;;;;;;;10.59;58.88;100795.03;4989342;28;20058;-57
2021/04/01 03:10:11;;;;;;;18.92;12.38;;;;;;;10.50;60.20;100787.94;4990559;28;20046;-56
2021/04/01 03:12:39;;;;;;;20.88;12.45;;;;;;;10.43;60.25;100786.91;4989331;28;20050;-54
2021/04/01 03:15:09;;;;;;;20.00;12.55;;;;;;;10.27;61.00;100782.19;4991175;28;20419;-58
2021/04/01 03:17:38;;;;;;;24.00;12.95;;;;;;;10.20;60.81;100790.47;4989575;28;20050;-54
2021/04/01 03:20:06;;;;;;;19.75;12.48;;;;;;;10.51;60.41;100782.00;4997761;28;20069;-58
2021/04/01 03:22:33;;;;;;;20.75;12.93;;;;;;;10.66;59.51;100779.84;4989644;28;20046;-53
2021/04/01 03:24:59;;;;;;;23.02;13.05;;;;;;;10.39;60.09;100791.91;4990706;28;20053;-55
2021/04/01 03:27:26;;;;;;;23.10;12.55;;;;;;;10.31;60.61;100784.03;4989088;28;20050;-53
2021/04/01 03:30:11;;;;;;;25.05;12.35;;;;;;;10.36;60.85;100784.16;4990244;28;20121;-51
2021/04/01 03:32:40;;;;;;;19.52;12.80;;;;;;;9.94;62.04;100775.25;4985082;28;20038;-57
2021/04/01 03:35:09;;;;;;;20.35;13.50;;;;;;;9.95;62.19;100776.13;4990910;28;20050;-55
2021/04/01 03:37:36;;;;;;;21.05;12.75;;;;;;;9.71;62.86;100771.13;4989500;28;20046;-58
2021/04/01 03:40:07;;;;;;;21.52;12.80;;;;;;;9.77;62.68;100768.75;4990632;28;20053;-57
2021/04/01 03:42:37;;;;;;;19.83;12.77;;;;;;;10.16;61.19;100779.28;4989482;28;20046;-57
2021/04/01 03:45:07;;;;;;;21.52;13.52;;;;;;;10.21;61.04;100769.16;4996647;28;20053;-58
2021/04/01 03:47:34;;;;;;;19.58;12.05;;;;;;;10.18;61.32;100779.34;4989212;28;20042;-52
2021/04/01 03:50:01;;;;;;;20.02;12.63;;;;;;;10.15;60.82;100776.69;4990305;28;20042;-57
2021/04/01 03:52:27;;;;;;;19.77;12.60;;;;;;;10.13;61.55;100774.09;4989152;28;20129;-53
2021/04/01 03:55:01;;;;;;;18.70;11.60;;;;;;;9.73;62.81;100781.41;4988708;28;20751;-55
2021/04/01 03:57:36;;;;;;;19.55;12.45;;;;;;;9.74;63.60;100772.91;4993065;28;21699;-54
2021/04/01 04:00:14;;;;;;;18.08;12.40;;;;;;;10.05;61.37;100777.25;4990374;28;20045;-55
2021/04/01 04:02:56;;;;;;;20.65;12.20;;;;;;;9.79;62.14;100772.22;4989139;28;20057;-57
2021/04/01 04:13:38;;;;;;;20.77;12.50;;;;;;;10.03;62.55;100766.09;4986878;28;20053;-58
2021/04/01 04:16:05;;;;;;;21.30;12.05;;;;;;;9.85;62.82;100772.41;4986588;28;20076;-52
2021/04/01 04:18:32;;;;;;;22.67;13.05;;;;;;;9.87;62.72;100773.31;4989073;28;20052;-57
2021/04/01 04:20:58;;;;;;;23.10;13.43;;;;;;;9.68;62.99;100764.22;4989697;28;20065;-59
2021/04/01 04:23:25;;;;;;;21.25;12.88;;;;;;;9.66;64.54;100768.44;4988774;28;20050;-58
2021/04/01 04:25:55;;;;;;;21.30;12.80;;;;;;;9.68;63.80;100761.66;4989055;28;20137;-58
2021/04/01 04:28:31;;;;;;;24.42;12.65;;;;;;;9.84;63.33;100762.13;4981008;28;20069;-57
2021/04/01 04:30:58;;;;;;;21.08;13.27;;;;;;;9.79;63.77;100761.13;4989729;28;20057;-57
2021/04/01 04:33:25;;;;;;;23.73;13.00;;;;;;;9.74;63.84;100758.44;4988184;28;20053;-55
2021/04/01 04:35:56;;;;;;;24.10;14.13;;;;;;;9.49;65.00;100764.50;4988701;28;20054;-52
2021/04/01 04:38:23;;;;;;;24.83;13.85;;;;;;;9.62;64.28;100756.38;4981661;28;20043;-56
2021/04/01 04:40:59;;;;;;;20.50;13.32;;;;;;;9.48;64.95;100756.78;4989024;28;20058;-56
2021/04/01 04:43:28;;;;;;;20.95;13.05;;;;;;;9.45;64.73;100754.97;4981631;28;20060;-50
2021/04/01 04:45:56;;;;;;;20.00;13.05;;;;;;;9.54;65.16;100749.28;4987688;28;20065;-53
2021/04/01 04:48:23;;;;;;;23.75;12.38;;;;;;;9.42;65.40;100752.31;4980963;28;20050;-53
2021/04/01 04:50:50;;;;;;;17.73;12.65;;;;;;;9.27;65.65;100756.97;4988699;28;20057;-55
2021/04/01 04:53:17;;;;;;;21.33;12.98;;;;;;;9.61;64.94;100748.66;4988283;28;20066;-55
2021/04/01 04:56:01;;;;;;;21.58;12.93;;;;;;;10.08;62.64;100747.50;4988029;28;20090;-58
2021/04/01 05:06:53;;;;;;;19.70;13.00;;;;;;;9.40;65.02;100754.84;4984784;28;20390;-51
2021/04/01 05:09:21;;;;;;;26.08;14.00;;;;;;;9.41;65.46;100746.34;4983692;28;20049;-48
2021/04/01 05:11:48;;;;;;;22.50;14.05;;;;;;;9.47;65.55;100747.34;4984481;28;20054;-50
2021/04/01 05:14:14;;;;;;;21.15;12.43;;;;;;;9.56;64.99;100753.63;4985366;28;20042;-53
2021/04/01 05:16:41;;;;;;;24.15;13.18;;;;;;;9.65;64.61;100760.69;4968420;28;20046;-54
2021/04/01 05:19:10;;;;;;;18.08;12.70;;;;;;;9.63;65.20;100754.69;4986234;28;20153;-52
2021/04/01 05:21:57;;;;;;;17.77;12.98;;;;;;;9.59;65.47;100765.63;4986386;28;20050;-55
2021/04/01 05:24:25;;;;;;;23.73;13.65;;;;;;;9.65;65.70;100774.34;4982530;28;20042;-53
2021/04/01 05:29:57;;;;;;;24.05;13.07;;;;;;;10.16;63.26;100778.41;4980899;28;20334;-52
2021/04/01 05:32:12;;;;;;;19.83;13.52;;;;;;;10.07;64.10;100768.78;4981603;28;20042;-53
2021/04/01 05:34:39;;;;;;;22.17;13.25;;;;;;;10.22;63.60;100770.94;4984879;28;20065;-55
2021/04/01 05:37:09;;;;;;;26.17;13.35;;;;;;;10.41;63.47;100772.34;4985427;28;20050;-57
2021/04/01 05:39:38;;;;;;;23.23;13.52;;;;;;;10.08;63.83;100773.09;4988770;28;20075;-56
2021/04/01 05:42:06;;;;;;;20.52;12.77;;;;;;;10.04;64.45;100767.84;4992474;28;20041;-55
2021/04/01 06:00:50;;;;;;;25.10;13.70;;;;;;;10.88;63.04;100793.22;4994051;28;20057;-55
2021/04/01 06:05:49;;;;;;;21.48;13.75;;;;;;;10.86;63.10;100784.63;4984279;28;20054;-54
2021/04/01 06:08:19;;;;;;;23.20;12.88;;;;;;;10.88;62.92;100773.59;4982566;28;20045;-51
2021/04/01 06:10:48;;;;;;;28.52;17.38;;;;;;;11.08;62.62;100776.66;4982668;28;20141;-53
2021/04/01 06:13:16;;;;;;;25.70;16.80;;;;;;;11.38;62.13;100784.25;4986062;28;20053;-49
2021/04/01 06:15:50;;;;;;;21.17;13.45;;;;;;;11.54;61.71;100779.47;4988349;28;20516;-50
2021/04/01 06:18:21;;;;;;;21.45;13.30;;;;;;;12.35;58.44;100786.38;4969380;28;20046;-55
2021/04/01 06:20:52;;;;;;;20.33;12.82;;;;;;;12.25;58.01;100785.34;4988033;28;20061;-51
2021/04/01 06:23:31;;;;;;;20.75;12.85;;;;;;;12.92;56.18;100789.16;4999627;28;20512;-53
2021/04/01 06:25:59;;;;;;;20.33;13.15;;;;;;;12.93;56.74;100792.59;4997274;28;20604;-50
2021/04/01 06:28:42;;;;;;;25.77;14.93;;;;;;;13.37;55.78;100792.53;4991495;28;20069;-54
2021/04/01 06:31:11;;;;;;;22.30;13.57;;;;;;;12.82;57.62;100800.13;4989134;28;20044;-50
2021/04/01 06:33:49;;;;;;;25.85;14.18;;;;;;;12.73;57.76;100802.53;4990568;28;20034;-49
2021/04/01 06:36:20;;;;;;;23.38;13.50;;;;;;;12.90;57.53;100805.41;4984296;28;20038;-49
2021/04/01 06:38:47;;;;;;;25.90;13.93;;;;;;;13.46;56.12;100803.81;4989403;28;20065;-53
2021/04/01 06:41:33;;;;;;;23.98;13.32;;;;;;;13.53;55.68;100806.47;4985806;28;20049;-51
2021/04/01 06:44:19;;;;;;;20.90;12.38;;;;;;;13.58;55.40;100802.28;4986396;28;20042;-51
2021/04/01 06:46:48;;;;;;;30.02;17.95;;;;;;;13.60;56.07;100811.75;4969229;28;20061;-52
2021/04/01 06:54:32;;;;;;;26.95;14.43;;;;;;;14.09;54.00;100806.41;4993626;28;20050;-48
2021/04/01 07:00:31;;;;;;;24.45;14.77;;;;;;;14.11;52.80;100825.34;4986931;28;20061;-55
2021/04/01 07:05:46;;;;;;;22.40;14.20;;;;;;;15.18;50.40;100824.88;4989577;28;20524;-57
2021/04/01 07:08:16;;;;;;;23.33;14.07;;;;;;;16.06;48.32;100828.97;4986916;28;20472;-51
2021/04/01 07:11:07;;;;;;;23.70;14.80;;;;;;;15.72;48.44;100825.31;4990179;28;20133;-54
2021/04/01 07:13:43;;;;;;;25.77;14.70;;;;;;;16.17;48.33;100831.59;4990917;28;20046;-54
2021/04/01 07:16:38;;;;;;;23.17;14.60;;;;;;;16.25;47.56;100824.75;4987527;28;20536;-57
2021/04/01 07:34:37;;;;;;;26.27;14.70;;;;;;;15.75;48.70;100797.78;4984855;28;20038;-57
2021/04/01 07:35:52;;;;;;;25.77;14.93;;;;;;;15.17;52.99;100807.66;4983692;28;20043;-55
2021/04/01 07:46:48;;;;;;;28.05;15.20;;;;;;;15.72;51.02;100815.88;4985719;28;20049;-58
2021/04/01 07:49:17;;;;;;;27.33;16.17;;;;;;;15.24;52.17;100809.44;4986301;28;20053;-56
2021/04/01 07:52:02;;;;;;;31.20;16.85;;;;;;;15.56;52.60;100816.56;4988426;28;20046;-51
2021/04/01 08:05:57;;;;;;;28.58;16.35;;;;;;;17.15;47.09;100806.94;4992017;28;20049;-44
2021/04/01 08:08:25;;;;;;;29.30;16.23;;;;;;;16.95;49.02;100819.81;4992643;28;20508;-48
2021/04/01 08:11:02;;;;;;;29.42;17.30;;;;;;;17.67;46.29;100811.22;4988513;28;20055;-55
2021/04/01 08:13:34;;;;;;;28.45;16.58;;;;;;;18.04;45.55;100819.81;4994164;28;20045;-53
2021/04/01 08:16:10;;;;;;;29.75;17.50;;;;;;;18.08;45.97;100826.72;4999258;28;20046;-58
2021/04/01 08:18:39;;;;;;;37.53;18.98;;;;;;;18.39;45.97;100830.03;4997830;28;20077;-54
2021/04/01 08:21:08;;;;;;;29.38;18.38;;;;;;;18.09;45.15;100815.47;4996109;28;20046;-53
2021/04/01 08:24:06;;;;;;;29.05;18.15;;;;;;;17.73;46.42;100808.59;4997093;28;20050;-51
2021/04/01 08:31:06;;;;;;;32.38;18.17;;;;;;;18.12;45.25;100815.47;4989491;28;20042;-51
2021/04/01 08:36:20;;;;;;;32.40;19.17;;;;;;;18.01;45.63;100822.41;4991506;28;20046;-53
2021/04/01 08:39:07;;;;;;;33.30;18.20;;;;;;;18.79;44.59;100814.31;5000385;28;20069;-52
2021/04/01 08:42:16;;;;;;;28.80;18.02;;;;;;;19.13;44.72;100824.44;4985379;28;20057;-50
2021/04/01 08:45:31;;;;;;;39.97;19.92;;;;;;;18.88;43.70;100809.06;4986182;28;20054;-49
2021/04/01 08:48:31;;;;;;;35.58;20.15;;;;;;;18.73;43.30;100811.75;4982420;28;20046;-54
2021/04/01 08:51:12;;;;;;;34.70;19.73;;;;;;;18.37;44.58;100805.00;4981978;28;20607;-49
2021/04/01 08:54:12;;;;;;;37.47;19.73;;;;;;;18.94;42.98;100800.38;4981427;28;20093;-46
2021/04/01 08:56:58;;;;;;;32.95;19.50;;;;;;;20.06;40.44;100795.06;4983041;28;20046;-52
2021/04/01 08:59:28;;;;;;;38.43;21.20;;;;;;;19.94;39.37;100790.84;4978149;28;20129;-50
2021/04/01 09:01:57;;;;;;;40.03;23.33;;;;;;;20.66;35.87;100795.16;4986628;28;20778;-52
2021/04/01 09:04:29;;;;;;;38.75;22.60;;;;;;;20.72;35.05;100792.47;4986454;28;20060;-47
2021/04/01 09:07:02;;;;;;;43.15;23.95;;;;;;;20.36;35.74;100801.59;4983111;28;20054;-51
2021/04/01 09:09:32;;;;;;;37.63;22.70;;;;;;;20.46;37.54;100800.59;4981971;28;20057;-57
2021/04/01 09:12:15;;;;;;;42.70;24.60;;;;;;;19.98;35.82;100804.66;4982440;28;20050;-54
2021/04/01 09:14:49;;;;;;;47.10;24.73;;;;;;;19.59;38.70;100807.59;4983552;28;20046;-50
2021/04/01 09:17:28;;;;;;;43.53;25.30;;;;;;;20.17;36.69;100821.78;4983421;28;20061;-51
2021/04/01 09:19:58;;;;;;;41.58;24.75;;;;;;;19.70;36.66;100832.69;4982180;28;20063;-55
2021/04/01 09:22:30;;;;;;;38.15;23.75;;;;;;;20.08;36.48;100834.88;4965705;28;20074;-55
2021/04/01 09:25:02;;;;;;;41.22;23.88;;;;;;;19.86;38.78;100841.19;4983628;28;20050;-53
2021/04/01 09:27:29;;;;;;;39.88;24.05;;;;;;;19.83;38.95;100844.69;4983756;28;20051;-57
2021/04/01 09:30:04;;;;;;;46.10;26.13;;;;;;;19.92;36.91;100836.78;4986305;28;20056;-56
2021/04/01 09:32:32;;;;;;;46.75;26.75;;;;;;;20.02;36.47;100830.63;4984376;28;20520;-53
2021/04/01 09:35:01;;;;;;;46.92;26.35;;;;;;;19.76;36.63;100827.41;4984654;28;20054;-52
2021/04/01 09:37:28;;;;;;;43.53;24.85;;;;;;;19.89;36.52;100826.41;4982457;28;20057;-48
2021/04/01 09:40:06;;;;;;;41.63;24.95;;;;;;;19.10;37.38;100825.34;4984488;28;20050;-55
2021/04/01 09:42:44;;;;;;;42.28;25.35;;;;;;;19.15;38.22;100831.38;4980819;28;20054;-53
2021/04/01 09:45:30;;;;;;;44.42;24.58;;;;;;;19.42;36.60;100829.44;4985766;28;20042;-52
2021/04/01 09:48:01;;;;;;;45.53;25.80;;;;;;;19.31;36.08;100826.91;4986582;28;20046;-53
2021/04/01 09:50:34;;;;;;;43.63;25.95;;;;;;;18.44;50.04;100819.63;4985008;28;20288;-53
2021/04/01 09:53:05;;;;;;;47.42;27.27;;;;;;;17.40;51.01;100802.59;4985375;28;20054;-55
2021/04/01 09:55:39;;;;;;;50.92;28.80;;;;;;;17.29;52.39;100807.81;4985078;28;20058;-57
2021/04/01 09:58:15;;;;;;;50.75;28.38;;;;;;;16.99;55.30;100794.84;4987365;28;20058;-53
2021/04/01 10:03:28;;;;;;;47.17;27.60;;;;;;;16.86;58.34;100790.50;4984016;28;20600;-53
2021/04/01 10:05:55;;;;;;;49.63;28.13;;;;;;;16.29;62.80;100777.41;4983714;28;20046;-51
2021/04/01 10:08:35;;;;;;;45.55;27.40;;;;;;;16.05;63.31;100767.84;4979663;28;20050;-56
2021/04/01 10:11:08;;;;;;;43.78;26.63;;;;;;;16.13;66.65;100773.91;4986441;28;20046;-53
2021/04/01 10:13:35;;;;;;;50.58;26.92;;;;;;;16.28;65.59;100773.97;4986356;28;20058;-50
2021/04/01 10:16:02;;;;;;;44.70;26.58;;;;;;;17.34;62.46;100776.72;4984626;28;20128;-54
2021/04/01 10:18:34;;;;;;;48.67;28.20;;;;;;;18.17;55.99;100774.84;4983793;28;20061;-57
2021/04/01 10:21:09;;;;;;;42.65;26.80;;;;;;;17.78;57.44;100783.59;4983758;28;20047;-53
2021/04/01 10:24:07;;;;;;;39.60;26.13;;;;;;;17.70;60.30;100785.28;4983438;28;20050;-52
2021/04/01 10:26:42;;;;;;;38.67;25.98;;;;;;;17.78;58.42;100788.78;4983831;28;20073;-56
2021/04/01 10:29:36;;;;;;;45.80;27.75;;;;;;;18.53;52.35;100780.69;4985462;28;20049;-49
2021/04/01 10:32:06;;;;;;;43.35;26.40;;;;;;;18.91;50.45;100782.25;4988954;28;20046;-53
2021/04/01 10:34:44;;;;;;;40.65;25.05;;;;;;;19.56;49.84;100776.47;4986554;28;20050;-51
2021/04/01 10:37:14;;;;;;;43.95;27.38;;;;;;;19.96;42.68;100776.06;4982556;28;20050;-49
2021/04/01 10:39:42;;;;;;;44.53;26.92;;;;;;;20.13;43.75;100773.28;4983822;28;20046;-57
2021/04/01 10:42:11;;;;;;;41.20;26.58;;;;;;;20.40;42.78;100784.22;4982889;28;20527;-53
2021/04/01 10:44:41;;;;;;;45.10;26.95;;;;;;;19.64;41.75;100783.34;4988262;28;20042;-54
2021/04/01 10:47:14;;;;;;;45.10;27.33;;;;;;;19.66;41.67;100786.81;4987439;28;20393;-54
2021/04/01 10:49:41;;;;;;;48.10;27.95;;;;;;;19.34;43.03;100790.53;4988106;28;20532;-55
2021/04/01 10:52:13;;;;;;;43.22;27.10;;;;;;;18.71;42.80;100787.53;4990498;28;20050;-54
2021/04/01 10:54:45;;;;;;;46.08;28.20;;;;;;;19.11;41.62;100784.69;4988526;28;20057;-52
2021/04/01 10:57:24;;;;;;;47.38;27.20;;;;;;;19.11;40.05;100779.50;4988561;28;20049;-51
2021/04/01 10:59:51;;;;;;;51.38;28.88;;;;;;;18.85;39.02;100774.47;4983089;28;20138;-46
2021/04/01 11:02:24;;;;;;;47.33;26.75;;;;;;;19.80;38.46;100770.19;4986351;28;20056;-49
2021/04/01 11:04:53;;;;;;;46.75;27.67;;;;;;;20.90;40.23;100769.66;4989577;28;20161;-55
2021/04/01 11:07:22;;;;;;;44.53;28.08;;;;;;;22.03;36.14;100765.88;4986407;28;20496;-54
2021/04/01 11:09:52;;;;;;;45.75;29.65;;;;;;;21.95;37.39;100767.78;4985783;28;20204;-49
2021/04/01 11:12:21;;;;;;;49.55;29.15;;;;;;;21.93;34.78;100772.19;4985914;28;20508;-54
2021/04/01 11:15:00;;;;;;;49.55;30.55;;;;;;;21.01;35.95;100771.19;4986315;28;20583;-51
2021/04/01 11:17:30;;;;;;;46.45;29.00;;;;;;;20.70;38.20;100762.97;4979741;28;20042;-57
2021/04/01 11:20:00;;;;;;;54.08;31.05;;;;;;;20.83;37.84;100761.06;4987191;28;20054;-54
2021/04/01 11:22:27;;;;;;;55.95;31.38;;;;;;;20.17;38.07;100764.56;4989243;28;20050;-52
2021/04/01 11:24:54;;;;;;;48.55;28.40;;;;;;;20.63;38.29;100757.91;4990578;28;20065;-51
2021/04/01 11:27:21;;;;;;;49.88;30.30;;;;;;;19.80;38.25;100761.53;4986730;28;20516;-53
2021/04/01 11:29:57;;;;;;;47.35;29.27;;;;;;;19.88;37.19;100767.53;4987237;28;20057;-52
2021/04/01 11:32:32;;;;;;;50.70;28.95;;;;;;;19.23;39.09;100764.69;4965007;28;20054;-53
2021/04/01 11:35:03;;;;;;;46.28;27.75;;;;;;;19.32;38.69;100763.75;4988804;28;20077;-55
2021/04/01 11:37:34;;;;;;;47.65;28.42;;;;;;;19.46;37.61;100754.06;4988724;28;20046;-51
2021/04/01 11:40:08;;;;;;;49.47;27.48;;;;;;;18.71;39.65;100746.91;4988509;28;20057;-54
2021/04/01 11:42:36;;;;;;;43.05;26.75;;;;;;;18.40;46.69;100741.03;4987393;28;20065;-53
2021/04/01 11:45:08;;;;;;;48.63;27.70;;;;;;;18.26;45.89;100735.91;4989704;28;20065;-51
2021/04/01 11:47:36;;;;;;;43.13;26.27;;;;;;;18.15;45.03;100750.63;4987777;28;20053;-51
2021/04/01 11:50:06;;;;;;;40.85;25.88;;;;;;;17.92;50.12;100761.09;4992148;28;20057;-57
2021/04/01 11:52:32;;;;;;;47.45;25.38;;;;;;;17.93;47.28;100780.09;4993456;28;20058;-55
2021/04/01 11:55:10;;;;;;;45.25;25.23;;;;;;;18.22;46.18;100782.59;4988627;28;20066;-53
2021/04/01 11:57:43;;;;;;;40.85;24.33;;;;;;;18.25;43.52;100778.25;4985556;28;20054;-53
2021/04/01 12:00:14;;;;;;;44.50;23.33;;;;;;;18.08;43.22;100761.06;4986067;28;20054;-55
2021/04/01 12:02:57;;;;;;;41.22;23.58;;;;;;;17.48;48.79;100754.28;4987293;28;20054;-50
2021/04/01 12:05:26;;;;;;;45.20;26.45;;;;;;;17.73;48.92;100751.63;4979381;28;20057;-54
2021/04/01 12:07:54;;;;;;;45.72;25.95;;;;;;;17.38;49.59;100755.16;4988171;28;20046;-51
2021/04/01 12:10:22;;;;;;;46.53;25.08;;;;;;;17.15;52.78;100757.75;4988572;28;20046;-56
2021/04/01 12:12:53;;;;;;;43.05;26.35;;;;;;;16.82;56.40;100755.13;4988738;28;20058;-54
2021/04/01 12:15:40;;;;;;;43.15;24.35;;;;;;;16.66;56.44;100759.41;4985818;28;20042;-52
2021/04/01 12:18:08;;;;;;;41.20;25.52;;;;;;;16.86;56.41;100762.91;4987027;28;20502;-53
2021/04/01 12:20:37;;;;;;;44.55;25.67;;;;;;;16.53;57.65;100754.19;4988133;28;20057;-55
2021/04/01 12:23:24;;;;;;;45.70;26.05;;;;;;;16.51;60.22;100735.25;4988058;28;20062;-56
2021/04/01 12:26:02;;;;;;;46.42;26.45;;;;;;;16.22;57.97;100742.03;4985502;28;20162;-50
2021/04/01 12:28:28;;;;;;;47.72;25.75;;;;;;;16.30;59.01;100743.78;4985284;28;20046;-54
2021/04/01 12:30:55;;;;;;;43.97;24.48;;;;;;;16.35;57.48;100741.22;4984722;28;20054;-50
2021/04/01 12:33:25;;;;;;;44.60;27.02;;;;;;;15.88;62.42;100741.91;4977664;28;20054;-53
2021/04/01 12:35:58;;;;;;;47.47;27.00;;;;;;;15.44;66.31;100754.56;4987357;28;20061;-54
2021/04/01 12:38:39;;;;;;;48.58;28.70;;;;;;;15.39;69.17;100753.63;4985305;28;20061;-53
2021/04/01 12:41:11;;;;;;;46.13;26.27;;;;;;;15.61;69.41;100747.75;4989229;28;20062;-55
2021/04/01 12:43:44;;;;;;;47.30;28.67;;;;;;;15.32;70.44;100736.41;4970737;28;20158;-54
2021/04/01 12:46:11;;;;;;;55.00;27.80;;;;;;;15.69;69.62;100729.78;4986756;28;20050;-53
2021/04/01 12:48:41;;;;;;;50.22;27.83;;;;;;;15.11;73.85;100735.38;4985570;28;20039;-55
2021/04/01 12:51:10;;;;;;;56.95;29.90;;;;;;;14.66;76.97;100720.38;4988566;28;20056;-50
2021/04/01 12:53:37;;;;;;;52.15;29.02;;;;;;;14.68;73.78;100729.00;4986913;28;20050;-50
2021/04/01 12:56:18;;;;;;;48.20;26.73;;;;;;;14.90;73.73;100733.50;4984713;28;20050;-53
2021/04/01 12:58:48;;;;;;;46.75;26.20;;;;;;;15.13;72.03;100744.00;4987922;28;20049;-53
2021/04/01 13:01:44;;;;;;;44.53;26.77;;;;;;;15.27;72.12;100734.66;4986737;28;20061;-55
2021/04/01 13:04:08;;;;;;;45.25;24.73;;;;;;;15.58;67.87;100732.28;4988241;28;20047;-56
2021/04/01 13:06:47;;;;;;;46.28;24.85;;;;;;;15.77;64.40;100738.44;4987147;28;20459;-56